NWS113 UWGG-UUDD
Flight info
| Callsign | NWS113 |
|---|---|
| Flight time | N/A |
| Altitude | 34000 |
| Route | LARNO P985 OSPOM T787 URAGO |
| Aircraft | B738/M-SDE2E3FGHIRWXY/LB1 |
Departure
| Time | 2026-05-06 15:35 |
|---|---|
| Airport | Nizhny Novgorod / Strigino International Airport (UWGG) |
Arrival
| Time | N/A |
|---|---|
| Airport | Domodedovo International Airport (UUDD) |
| Time | Latitude | Longitude | Altitude | Speed | Heading |
|---|---|---|---|---|---|
| 2026-05-06 15:24 | 56.22285 | 43.78858 | 253 ft | 0 kts | 147° |
| 2026-05-06 15:30 | 56.22285 | 43.78859 | 253 ft | 0 kts | 147° |
| 2026-05-06 15:30 | 56.22275 | 43.78891 | 254 ft | 3 kts | 85° |
| 2026-05-06 15:31 | 56.22287 | 43.78919 | 254 ft | 3 kts | 33° |
| 2026-05-06 15:31 | 56.22348 | 43.78948 | 253 ft | 16 kts | 12° |
| 2026-05-06 15:31 | 56.22448 | 43.78950 | 253 ft | 14 kts | 311° |
| 2026-05-06 15:32 | 56.22658 | 43.78915 | 253 ft | 21 kts | 12° |
| 2026-05-06 15:32 | 56.22823 | 43.78976 | 253 ft | 26 kts | 11° |
| 2026-05-06 15:32 | 56.23018 | 43.79048 | 254 ft | 30 kts | 12° |
| 2026-05-06 15:32 | 56.23241 | 43.79132 | 255 ft | 33 kts | 12° |
| 2026-05-06 15:33 | 56.23459 | 43.79210 | 256 ft | 31 kts | 11° |
| 2026-05-06 15:33 | 56.23678 | 43.79238 | 254 ft | 31 kts | 3° |
| 2026-05-06 15:33 | 56.23891 | 43.79256 | 253 ft | 30 kts | 2° |
| 2026-05-06 15:33 | 56.24015 | 43.79261 | 253 ft | 12 kts | 351° |
| 2026-05-06 15:34 | 56.24083 | 43.79170 | 252 ft | 13 kts | 304° |
| 2026-05-06 15:34 | 56.24121 | 43.79019 | 249 ft | 13 kts | 256° |
| 2026-05-06 15:34 | 56.24035 | 43.78961 | 249 ft | 18 kts | 192° |
| 2026-05-06 15:34 | 56.23706 | 43.78837 | 250 ft | 86 kts | 192° |
| 2026-05-06 15:35 | 56.22890 | 43.78540 | 251 ft | 153 kts | 192° |
| 2026-05-06 15:35 | 56.21736 | 43.78114 | 672 ft | 174 kts | 192° |
| 2026-05-06 15:35 | 56.20544 | 43.77654 | 1360 ft | 182 kts | 197° |
| 2026-05-06 15:35 | 56.19309 | 43.77043 | 2000 ft | 188 kts | 204° |
| 2026-05-06 15:36 | 56.18116 | 43.76023 | 2306 ft | 199 kts | 213° |
| 2026-05-06 15:36 | 56.16878 | 43.74758 | 2777 ft | 215 kts | 214° |
| 2026-05-06 15:36 | 56.15502 | 43.73438 | 3192 ft | 235 kts | 212° |
| 2026-05-06 15:36 | 56.14003 | 43.72172 | 3896 ft | 242 kts | 210° |
| 2026-05-06 15:37 | 56.12465 | 43.70920 | 4476 ft | 254 kts | 211° |
| 2026-05-06 15:37 | 56.10840 | 43.69486 | 4875 ft | 265 kts | 212° |
| 2026-05-06 15:37 | 56.09181 | 43.68010 | 4873 ft | 271 kts | 211° |
| 2026-05-06 15:37 | 56.07477 | 43.66524 | 4887 ft | 271 kts | 211° |
| 2026-05-06 15:38 | 56.05783 | 43.65066 | 4881 ft | 273 kts | 211° |
| 2026-05-06 15:38 | 56.04066 | 43.63595 | 4871 ft | 272 kts | 211° |
| 2026-05-06 15:38 | 56.02400 | 43.62080 | 4877 ft | 271 kts | 216° |
| 2026-05-06 15:38 | 56.00941 | 43.60011 | 4885 ft | 264 kts | 231° |
| 2026-05-06 15:39 | 55.99755 | 43.57567 | 4884 ft | 263 kts | 236° |
| 2026-05-06 15:39 | 55.98603 | 43.55020 | 4875 ft | 261 kts | 236° |
| 2026-05-06 15:39 | 55.97452 | 43.52532 | 4897 ft | 268 kts | 235° |
| 2026-05-06 15:39 | 55.96212 | 43.49931 | 5773 ft | 274 kts | 234° |
| 2026-05-06 15:40 | 55.95015 | 43.47495 | 7005 ft | 265 kts | 233° |
| 2026-05-06 15:40 | 55.93805 | 43.45047 | 7984 ft | 265 kts | 233° |
| 2026-05-06 15:40 | 55.92603 | 43.42607 | 8874 ft | 268 kts | 233° |
| 2026-05-06 15:40 | 55.91372 | 43.40098 | 9726 ft | 272 kts | 233° |
| 2026-05-06 15:41 | 55.90120 | 43.37543 | 10470 ft | 279 kts | 233° |
| 2026-05-06 15:41 | 55.88825 | 43.34889 | 11027 ft | 293 kts | 232° |
| 2026-05-06 15:41 | 55.87464 | 43.32102 | 11471 ft | 310 kts | 232° |
| 2026-05-06 15:41 | 55.86011 | 43.29139 | 12036 ft | 323 kts | 232° |
| 2026-05-06 15:42 | 55.84530 | 43.26134 | 12703 ft | 331 kts | 231° |
| 2026-05-06 15:42 | 55.82998 | 43.23036 | 13462 ft | 336 kts | 232° |
| 2026-05-06 15:42 | 55.81469 | 43.19943 | 14237 ft | 340 kts | 232° |
| 2026-05-06 15:42 | 55.80021 | 43.16608 | 15012 ft | 342 kts | 239° |
| 2026-05-06 15:43 | 55.78982 | 43.12892 | 15773 ft | 341 kts | 251° |
| 2026-05-06 15:43 | 55.78268 | 43.08857 | 16499 ft | 344 kts | 256° |
| 2026-05-06 15:43 | 55.77668 | 43.04722 | 17217 ft | 348 kts | 257° |
| 2026-05-06 15:43 | 55.77100 | 43.00586 | 17907 ft | 351 kts | 257° |
| 2026-05-06 15:44 | 55.76511 | 42.96348 | 18585 ft | 356 kts | 257° |
| 2026-05-06 15:44 | 55.75903 | 42.92133 | 19240 ft | 359 kts | 257° |
| 2026-05-06 15:44 | 55.75262 | 42.87825 | 19948 ft | 362 kts | 256° |
| 2026-05-06 15:44 | 55.74613 | 42.83544 | 20539 ft | 366 kts | 256° |
| 2026-05-06 15:45 | 55.73942 | 42.79161 | 21181 ft | 369 kts | 256° |
| 2026-05-06 15:45 | 55.73271 | 42.74797 | 21735 ft | 374 kts | 257° |
| 2026-05-06 15:45 | 55.72580 | 42.70314 | 22331 ft | 377 kts | 257° |
| 2026-05-06 15:45 | 55.71894 | 42.65876 | 22941 ft | 380 kts | 257° |
| 2026-05-06 15:46 | 55.71189 | 42.61312 | 23420 ft | 386 kts | 257° |
| 2026-05-06 15:46 | 55.70485 | 42.56772 | 23992 ft | 388 kts | 257° |
| 2026-05-06 15:46 | 55.69762 | 42.52126 | 24549 ft | 392 kts | 257° |
| 2026-05-06 15:46 | 55.69040 | 42.47493 | 25028 ft | 396 kts | 257° |
| 2026-05-06 15:47 | 55.68301 | 42.42765 | 25595 ft | 399 kts | 257° |
| 2026-05-06 15:47 | 55.67563 | 42.38060 | 26095 ft | 402 kts | 257° |
| 2026-05-06 15:47 | 55.66809 | 42.33265 | 26611 ft | 405 kts | 256° |
| 2026-05-06 15:47 | 55.66058 | 42.28505 | 27098 ft | 408 kts | 256° |
| 2026-05-06 15:48 | 55.65288 | 42.23638 | 27576 ft | 411 kts | 257° |
| 2026-05-06 15:48 | 55.64521 | 42.18800 | 27958 ft | 416 kts | 257° |
| 2026-05-06 15:48 | 55.63732 | 42.13842 | 28437 ft | 419 kts | 257° |
| 2026-05-06 15:48 | 55.62945 | 42.08906 | 28885 ft | 422 kts | 257° |
| 2026-05-06 15:49 | 55.62144 | 42.03902 | 29253 ft | 426 kts | 257° |
| 2026-05-06 15:49 | 55.61323 | 41.98782 | 29653 ft | 430 kts | 257° |
| 2026-05-06 15:49 | 55.60507 | 41.93713 | 30067 ft | 433 kts | 257° |
| 2026-05-06 15:49 | 55.59690 | 41.88549 | 30469 ft | 436 kts | 258° |
| 2026-05-06 15:50 | 55.59024 | 41.83352 | 30816 ft | 438 kts | 263° |
| 2026-05-06 15:50 | 55.58625 | 41.78018 | 31278 ft | 437 kts | 267° |
| 2026-05-06 15:50 | 55.58427 | 41.72650 | 31667 ft | 438 kts | 270° |
| 2026-05-06 15:50 | 55.58334 | 41.67326 | 32062 ft | 439 kts | 271° |
| 2026-05-06 15:51 | 55.58285 | 41.61967 | 32436 ft | 441 kts | 271° |
| 2026-05-06 15:51 | 55.58248 | 41.56520 | 32799 ft | 443 kts | 271° |
| 2026-05-06 15:51 | 55.58208 | 41.51109 | 33166 ft | 445 kts | 271° |
| 2026-05-06 15:51 | 55.58158 | 41.45607 | 33499 ft | 447 kts | 271° |
| 2026-05-06 15:52 | 55.58099 | 41.40169 | 33830 ft | 447 kts | 270° |
| 2026-05-06 15:52 | 55.58030 | 41.34724 | 33873 ft | 435 kts | 270° |
| 2026-05-06 15:52 | 55.57954 | 41.29520 | 33879 ft | 421 kts | 270° |
| 2026-05-06 15:52 | 55.57875 | 41.24375 | 33885 ft | 418 kts | 269° |
| 2026-05-06 15:53 | 55.57706 | 41.14079 | 33883 ft | 426 kts | 269° |
| 2026-05-06 15:53 | 55.57520 | 41.03730 | 33882 ft | 420 kts | 269° |
| 2026-05-06 15:54 | 55.57323 | 40.93349 | 33881 ft | 423 kts | 269° |
| 2026-05-06 15:54 | 55.57117 | 40.82983 | 33883 ft | 424 kts | 269° |
| 2026-05-06 15:55 | 55.56901 | 40.72597 | 33884 ft | 425 kts | 269° |
| 2026-05-06 15:55 | 55.56678 | 40.62254 | 33882 ft | 424 kts | 269° |
| 2026-05-06 15:56 | 55.56444 | 40.51834 | 33886 ft | 426 kts | 269° |
| 2026-05-06 15:56 | 55.56194 | 40.41354 | 33896 ft | 428 kts | 269° |
| 2026-05-06 15:57 | 55.55911 | 40.30935 | 33898 ft | 428 kts | 268° |
| 2026-05-06 15:57 | 55.55611 | 40.20473 | 33898 ft | 430 kts | 268° |
| 2026-05-06 15:58 | 55.55302 | 40.09954 | 33896 ft | 429 kts | 268° |
| 2026-05-06 15:58 | 55.55075 | 39.99457 | 33898 ft | 429 kts | 271° |
| 2026-05-06 15:59 | 55.55191 | 39.94310 | 33897 ft | 416 kts | 274° |
| 2026-05-06 15:59 | 55.55421 | 39.89300 | 33904 ft | 400 kts | 276° |
| 2026-05-06 15:59 | 55.55976 | 39.79724 | 33904 ft | 398 kts | 277° |
| 2026-05-06 16:00 | 55.56546 | 39.69971 | 33901 ft | 399 kts | 276° |
| 2026-05-06 16:00 | 55.57074 | 39.60314 | 33904 ft | 398 kts | 276° |
| 2026-05-06 16:01 | 55.57273 | 39.50557 | 33916 ft | 401 kts | 268° |
| 2026-05-06 16:01 | 55.56565 | 39.40804 | 33905 ft | 403 kts | 262° |
| 2026-05-06 16:02 | 55.55545 | 39.31086 | 33902 ft | 403 kts | 261° |
| 2026-05-06 16:02 | 55.54504 | 39.21414 | 33907 ft | 402 kts | 261° |
| 2026-05-06 16:03 | 55.53990 | 39.16550 | 33792 ft | 410 kts | 261° |
| 2026-05-06 16:03 | 55.53470 | 39.11568 | 33409 ft | 412 kts | 261° |
| 2026-05-06 16:03 | 55.52962 | 39.06688 | 33086 ft | 404 kts | 261° |
| 2026-05-06 16:03 | 55.52459 | 39.01863 | 32714 ft | 398 kts | 261° |
| 2026-05-06 16:04 | 55.51961 | 38.97073 | 32265 ft | 393 kts | 261° |
| 2026-05-06 16:04 | 55.51456 | 38.92377 | 31797 ft | 390 kts | 260° |
| 2026-05-06 16:04 | 55.50802 | 38.87776 | 31311 ft | 393 kts | 254° |
| 2026-05-06 16:04 | 55.49721 | 38.83257 | 30850 ft | 400 kts | 243° |
| 2026-05-06 16:05 | 55.48429 | 38.79843 | 30627 ft | 396 kts | 234° |
| 2026-05-06 16:05 | 55.46591 | 38.76264 | 30109 ft | 395 kts | 227° |
| 2026-05-06 16:05 | 55.44581 | 38.72981 | 29633 ft | 392 kts | 224° |
| 2026-05-06 16:05 | 55.42542 | 38.69876 | 29166 ft | 388 kts | 223° |
| 2026-05-06 16:06 | 55.40499 | 38.66853 | 28711 ft | 384 kts | 222° |
| 2026-05-06 16:06 | 55.38449 | 38.63842 | 28251 ft | 380 kts | 222° |
| 2026-05-06 16:06 | 55.36444 | 38.60897 | 27795 ft | 376 kts | 222° |
| 2026-05-06 16:06 | 55.34445 | 38.57953 | 27343 ft | 372 kts | 223° |
| 2026-05-06 16:07 | 55.32493 | 38.55069 | 26894 ft | 369 kts | 223° |
| 2026-05-06 16:07 | 55.30535 | 38.52168 | 26440 ft | 365 kts | 223° |
| 2026-05-06 16:07 | 55.28631 | 38.49343 | 25998 ft | 361 kts | 223° |
| 2026-05-06 16:07 | 55.26675 | 38.46579 | 25547 ft | 359 kts | 219° |
| 2026-05-06 16:08 | 55.24587 | 38.44315 | 25107 ft | 357 kts | 207° |
| 2026-05-06 16:08 | 55.22237 | 38.42891 | 24656 ft | 357 kts | 195° |
| 2026-05-06 16:08 | 55.19814 | 38.42289 | 24225 ft | 355 kts | 186° |
| 2026-05-06 16:08 | 55.17335 | 38.42272 | 23798 ft | 354 kts | 179° |
| 2026-05-06 16:09 | 55.14908 | 38.42834 | 23446 ft | 359 kts | 171° |
| 2026-05-06 16:09 | 55.12468 | 38.43921 | 23273 ft | 361 kts | 166° |
| 2026-05-06 16:09 | 55.10115 | 38.45188 | 23102 ft | 354 kts | 167° |
| 2026-05-06 16:09 | 55.07736 | 38.46035 | 22839 ft | 342 kts | 180° |
| 2026-05-06 16:10 | 55.05450 | 38.45644 | 22540 ft | 330 kts | 199° |
| 2026-05-06 16:10 | 55.03325 | 38.44194 | 22111 ft | 325 kts | 210° |
| 2026-05-06 16:10 | 55.01358 | 38.42405 | 21715 ft | 321 kts | 212° |
| 2026-05-06 16:10 | 54.99494 | 38.40311 | 21328 ft | 315 kts | 222° |
| 2026-05-06 16:11 | 54.97942 | 38.37738 | 20953 ft | 310 kts | 231° |
| 2026-05-06 16:11 | 54.96554 | 38.34878 | 20559 ft | 306 kts | 233° |
| 2026-05-06 16:11 | 54.95258 | 38.32010 | 20184 ft | 303 kts | 235° |
| 2026-05-06 16:11 | 54.94139 | 38.28939 | 19837 ft | 297 kts | 245° |
| 2026-05-06 16:12 | 54.93367 | 38.25675 | 19460 ft | 294 kts | 253° |
| 2026-05-06 16:12 | 54.92771 | 38.22286 | 19077 ft | 291 kts | 256° |
| 2026-05-06 16:12 | 54.92245 | 38.18939 | 18696 ft | 289 kts | 257° |
| 2026-05-06 16:12 | 54.91899 | 38.15518 | 18355 ft | 284 kts | 267° |
| 2026-05-06 16:13 | 54.91898 | 38.12153 | 17995 ft | 281 kts | 275° |
| 2026-05-06 16:13 | 54.92125 | 38.08793 | 17620 ft | 278 kts | 285° |
| 2026-05-06 16:13 | 54.92970 | 38.05860 | 17286 ft | 275 kts | 310° |
| 2026-05-06 16:13 | 54.94445 | 38.03818 | 16942 ft | 276 kts | 330° |
| 2026-05-06 16:14 | 54.96254 | 38.02667 | 16604 ft | 277 kts | 343° |
| 2026-05-06 16:14 | 54.98148 | 38.02309 | 16264 ft | 280 kts | 1° |
| 2026-05-06 16:14 | 55.00019 | 38.03279 | 15940 ft | 284 kts | 26° |
| 2026-05-06 16:14 | 55.01648 | 38.05169 | 15601 ft | 285 kts | 33° |
| 2026-05-06 16:15 | 55.03288 | 38.07086 | 15233 ft | 281 kts | 22° |
| 2026-05-06 16:15 | 55.05043 | 38.08389 | 14915 ft | 275 kts | 14° |
| 2026-05-06 16:15 | 55.06858 | 38.09421 | 14580 ft | 272 kts | 13° |
| 2026-05-06 16:15 | 55.08645 | 38.10382 | 14257 ft | 271 kts | 13° |
| 2026-05-06 16:16 | 55.10442 | 38.11371 | 13933 ft | 269 kts | 12° |
| 2026-05-06 16:16 | 55.12228 | 38.12070 | 13609 ft | 263 kts | 1° |
| 2026-05-06 16:16 | 55.14034 | 38.12003 | 13286 ft | 256 kts | 347° |
| 2026-05-06 16:16 | 55.15758 | 38.11480 | 12961 ft | 252 kts | 344° |
| 2026-05-06 16:17 | 55.17479 | 38.10869 | 12656 ft | 251 kts | 344° |
| 2026-05-06 16:17 | 55.19168 | 38.10283 | 12333 ft | 249 kts | 345° |
| 2026-05-06 16:17 | 55.20875 | 38.09722 | 12016 ft | 248 kts | 345° |
| 2026-05-06 16:17 | 55.22556 | 38.09183 | 11604 ft | 250 kts | 345° |
| 2026-05-06 16:18 | 55.24237 | 38.08492 | 11294 ft | 241 kts | 336° |
| 2026-05-06 16:18 | 55.25679 | 38.07205 | 11084 ft | 231 kts | 322° |
| 2026-05-06 16:18 | 55.26965 | 38.05551 | 10802 ft | 229 kts | 319° |
| 2026-05-06 16:18 | 55.28245 | 38.03879 | 10501 ft | 228 kts | 320° |
| 2026-05-06 16:19 | 55.29515 | 38.02302 | 10320 ft | 221 kts | 321° |
| 2026-05-06 16:19 | 55.30768 | 38.00776 | 10184 ft | 218 kts | 321° |
| 2026-05-06 16:19 | 55.32029 | 37.99247 | 9931 ft | 226 kts | 321° |
| 2026-05-06 16:19 | 55.33336 | 37.97685 | 9635 ft | 225 kts | 321° |
| 2026-05-06 16:20 | 55.34623 | 37.96155 | 9345 ft | 224 kts | 322° |
| 2026-05-06 16:20 | 55.35905 | 37.94628 | 9059 ft | 222 kts | 322° |
| 2026-05-06 16:20 | 55.37194 | 37.93088 | 8767 ft | 221 kts | 322° |
| 2026-05-06 16:20 | 55.38463 | 37.91573 | 8483 ft | 220 kts | 322° |
| 2026-05-06 16:21 | 55.39716 | 37.90080 | 8205 ft | 219 kts | 322° |
| 2026-05-06 16:21 | 55.40979 | 37.88577 | 7921 ft | 218 kts | 322° |
| 2026-05-06 16:21 | 55.42236 | 37.87074 | 7638 ft | 217 kts | 321° |
| 2026-05-06 16:21 | 55.43298 | 37.85301 | 7371 ft | 210 kts | 296° |
| 2026-05-06 16:22 | 55.43653 | 37.82855 | 7149 ft | 208 kts | 269° |
| 2026-05-06 16:22 | 55.43404 | 37.80323 | 6918 ft | 215 kts | 253° |
| 2026-05-06 16:22 | 55.42679 | 37.78044 | 6663 ft | 220 kts | 229° |
| 2026-05-06 16:22 | 55.41358 | 37.76627 | 6420 ft | 226 kts | 199° |
| 2026-05-06 16:23 | 55.39792 | 37.76358 | 6192 ft | 231 kts | 181° |
| 2026-05-06 16:23 | 55.38173 | 37.76609 | 5947 ft | 233 kts | 178° |
| 2026-05-06 16:23 | 55.36573 | 37.76893 | 5704 ft | 233 kts | 179° |
| 2026-05-06 16:23 | 55.34948 | 37.77152 | 5458 ft | 233 kts | 179° |
| 2026-05-06 16:24 | 55.33345 | 37.77392 | 5215 ft | 233 kts | 178° |
| 2026-05-06 16:24 | 55.31725 | 37.77629 | 4973 ft | 232 kts | 178° |
| 2026-05-06 16:24 | 55.30107 | 37.77866 | 4732 ft | 232 kts | 178° |
| 2026-05-06 16:24 | 55.28514 | 37.78099 | 4492 ft | 232 kts | 178° |
| 2026-05-06 16:25 | 55.26902 | 37.78335 | 4253 ft | 231 kts | 178° |
| 2026-05-06 16:25 | 55.25310 | 37.78569 | 4028 ft | 231 kts | 178° |
| 2026-05-06 16:25 | 55.23727 | 37.78802 | 3796 ft | 230 kts | 177° |
| 2026-05-06 16:25 | 55.22126 | 37.79037 | 3551 ft | 229 kts | 176° |
| 2026-05-06 16:26 | 55.20552 | 37.79268 | 3322 ft | 229 kts | 176° |
| 2026-05-06 16:26 | 55.18956 | 37.79501 | 3074 ft | 229 kts | 176° |
| 2026-05-06 16:26 | 55.17399 | 37.79729 | 2979 ft | 225 kts | 176° |
| 2026-05-06 16:26 | 55.15828 | 37.80188 | 2985 ft | 230 kts | 162° |
| 2026-05-06 16:27 | 55.14387 | 37.81324 | 2990 ft | 229 kts | 151° |
| 2026-05-06 16:27 | 55.12990 | 37.82713 | 2988 ft | 230 kts | 150° |
| 2026-05-06 16:27 | 55.11601 | 37.84057 | 2986 ft | 230 kts | 152° |
| 2026-05-06 16:27 | 55.10178 | 37.85364 | 2984 ft | 230 kts | 153° |
| 2026-05-06 16:28 | 55.08768 | 37.86627 | 2983 ft | 230 kts | 153° |
| 2026-05-06 16:28 | 55.07337 | 37.87907 | 2986 ft | 230 kts | 153° |
| 2026-05-06 16:28 | 55.05928 | 37.89169 | 2985 ft | 230 kts | 153° |
| 2026-05-06 16:28 | 55.04501 | 37.90464 | 2980 ft | 230 kts | 149° |
| 2026-05-06 16:29 | 55.03396 | 37.92382 | 2981 ft | 229 kts | 113° |
| 2026-05-06 16:29 | 55.03140 | 37.95068 | 2990 ft | 225 kts | 79° |
| 2026-05-06 16:29 | 55.03646 | 37.97575 | 2985 ft | 220 kts | 55° |
| 2026-05-06 16:29 | 55.04607 | 37.99635 | 2985 ft | 217 kts | 42° |
| 2026-05-06 16:30 | 55.05687 | 38.01438 | 2982 ft | 217 kts | 40° |
| 2026-05-06 16:30 | 55.06430 | 38.02645 | 2983 ft | 217 kts | 40° |
| 2026-05-06 16:30 | 55.07887 | 38.05054 | 2983 ft | 217 kts | 41° |
| 2026-05-06 16:30 | 55.08969 | 38.06868 | 2983 ft | 217 kts | 41° |
| 2026-05-06 16:31 | 55.10066 | 38.08710 | 2983 ft | 218 kts | 41° |
| 2026-05-06 16:31 | 55.11150 | 38.10519 | 2983 ft | 217 kts | 39° |
| 2026-05-06 16:31 | 55.12380 | 38.12019 | 2978 ft | 213 kts | 18° |
| 2026-05-06 16:31 | 55.13815 | 38.12249 | 2993 ft | 211 kts | 348° |
| 2026-05-06 16:32 | 55.15248 | 38.11652 | 2980 ft | 210 kts | 345° |
| 2026-05-06 16:32 | 55.16656 | 38.11073 | 2984 ft | 210 kts | 347° |
| 2026-05-06 16:32 | 55.18099 | 38.10589 | 2983 ft | 210 kts | 349° |
| 2026-05-06 16:32 | 55.19525 | 38.10146 | 2988 ft | 210 kts | 348° |
| 2026-05-06 16:33 | 55.20973 | 38.09692 | 2985 ft | 210 kts | 348° |
| 2026-05-06 16:33 | 55.22396 | 38.09240 | 2978 ft | 209 kts | 348° |
| 2026-05-06 16:33 | 55.23832 | 38.08714 | 2983 ft | 210 kts | 340° |
| 2026-05-06 16:34 | 55.26302 | 38.06111 | 2996 ft | 208 kts | 324° |
| 2026-05-06 16:34 | 55.27451 | 38.04695 | 2992 ft | 193 kts | 326° |
| 2026-05-06 16:34 | 55.28532 | 38.03420 | 2996 ft | 185 kts | 326° |
| 2026-05-06 16:34 | 55.29570 | 38.02191 | 2898 ft | 176 kts | 326° |
| 2026-05-06 16:35 | 55.30566 | 38.01005 | 2676 ft | 173 kts | 326° |
| 2026-05-06 16:35 | 55.31554 | 37.99826 | 2444 ft | 167 kts | 326° |
| 2026-05-06 16:35 | 55.32482 | 37.98720 | 2234 ft | 156 kts | 326° |
| 2026-05-06 16:35 | 55.33337 | 37.97701 | 2074 ft | 146 kts | 326° |
| 2026-05-06 16:36 | 55.34181 | 37.96694 | 1841 ft | 146 kts | 326° |
| 2026-05-06 16:36 | 55.35027 | 37.95684 | 1650 ft | 147 kts | 326° |
| 2026-05-06 16:36 | 55.35867 | 37.94681 | 1460 ft | 148 kts | 325° |
| 2026-05-06 16:36 | 55.36729 | 37.93651 | 1262 ft | 150 kts | 325° |
| 2026-05-06 16:37 | 55.37592 | 37.92618 | 1067 ft | 152 kts | 325° |
| 2026-05-06 16:37 | 55.38397 | 37.91655 | 887 ft | 152 kts | 324° |
| 2026-05-06 16:37 | 55.39319 | 37.90552 | 682 ft | 153 kts | 324° |
| 2026-05-06 16:37 | 55.39928 | 37.89821 | 589 ft | 147 kts | 324° |
| 2026-05-06 16:38 | 55.40438 | 37.89215 | 589 ft | 97 kts | 328° |